LKPR Informações do Aeroporto

Informações da Pista
Pista 04 Comprimento 6955 ft Largura 197 ft
Elevação 1247 ft Limite 0 ft Heading 37
Pista 22 Comprimento 6955 ft Largura 197 ft
Elevação 1174 ft Limite 0 ft Heading 217
Pista 06 Comprimento 12189 ft Largura 148 ft
Elevação 1202 ft Limite 0 ft Heading 65
Pista 24 Comprimento 12189 ft Largura 148 ft
Elevação 1158 ft Limite 0 ft Heading 245
Pista 13 Comprimento 10663 ft Largura 148 ft
Elevação 1160 ft Limite 0 ft Heading 127
Pista 31 Comprimento 10663 ft Largura 148 ft
Elevação 1232 ft Limite 0 ft Heading 307
Frequências do Aeroporto
Tipo APP Nome PRAHA APP Frequência 120.525 MHZ
Tipo ATIS Nome ATIS Frequência 122.15 MHZ
Tipo CLD Nome CLNC DEL Frequência 120.05 MHZ
Tipo GND Nome GND Frequência 121.9 MHZ
Tipo INFO Nome INFO Frequência 118.3 MHZ
Tipo RDR Nome RADAR Frequência 119 MHZ
Tipo TWR Nome TWR Frequência 118.1 MHZ
Navaids do Aeroporto
Tipo VOR-DME Nome Neratovice Frequência 108600 KHZ
Tipo VOR-DME Nome Praha Frequência 112600 KHZ
Tipo NDB Nome Ruzyne Middle Frequência 307 KHZ
Tipo NDB Nome Ruzyne North Frequência 356 KHZ
Informações meteorológicas do aeroporto e NOTAM
ADDS - METARS form results

(0325 UTC 22 October 2019)
Data provider http://aviationweather.gov/metar/data/
 
METAR text: LKPR 220320Z 23005KT 0400 R24/0550N FG FEW001 BKN002 07/07 Q1022 RMK REG QNH 1019
Conditions at: LKPR (PRAGUE/RUZYNE , CZ) observed 0320 UTC 22 October 2019
Temperature: 7.0°C (45°F)
Dewpoint: 7.0°C (45°F) [RH = 100%]
Pressure (altimeter): 30.18 inches Hg (1022.0 mb)
Winds: from the SW (230 degrees) at 6 MPH (5 knots; 2.6 m/s)
Visibility: 0.25 miles (0.40 km)
Ceiling: 200 feet AGL
Clouds: few clouds at 100 feet AGL
broken clouds at 200 feet AGL
Weather: FG  (fog)

METAR text: LKPR 220311Z 23005KT 0450 R24/0500D FG BKN003 07/07 Q1022 RMK REG QNH 1019
Conditions at: LKPR (PRAGUE/RUZYNE , CZ) observed 0311 UTC 22 October 2019
Temperature: 7.0°C (45°F)
Dewpoint: 7.0°C (45°F) [RH = 100%]
Pressure (altimeter): 30.18 inches Hg (1022.0 mb)
Winds: from the SW (230 degrees) at 6 MPH (5 knots; 2.6 m/s)
Visibility: 0.28 miles (0.45 km)
Ceiling: 300 feet AGL
Clouds: broken clouds at 300 feet AGL
Weather: FG  (fog)

METAR text: LKPR 220300Z 23004KT 0900 0400SE R24/1700U FG SCT003 07/06 Q1022 TEMPO 0600 FG
Conditions at: LKPR (PRAGUE/RUZYNE , CZ) observed 0300 UTC 22 October 2019
Temperature: 7.0°C (45°F)
Dewpoint: 6.0°C (43°F) [RH = 93%]
Pressure (altimeter): 30.18 inches Hg (1022.0 mb)
Winds: from the SW (230 degrees) at 5 MPH (4 knots; 2.1 m/s)
Visibility: 0.56 miles (0.90 km)
Ceiling: at least 12,000 feet AGL
Clouds: scattered clouds at 300 feet AGL
Weather: FG  (fog)

METAR text: LKPR 220251Z 24002KT 1000 0450SE R24/P2000N FG VV003 07/07 Q1022 RMK REG QNH 1019
Conditions at: LKPR (PRAGUE/RUZYNE , CZ) observed 0251 UTC 22 October 2019
Temperature: 7.0°C (45°F)
Dewpoint: 7.0°C (45°F) [RH = 100%]
Pressure (altimeter): 30.18 inches Hg (1022.0 mb)
Winds: from the WSW (240 degrees) at 2 MPH (2 knots; 1.0 m/s)
Visibility: 0.62 miles (1.00 km)
Ceiling: indefinite ceiling with vertical visibility of 300 feet AGL
Clouds: obscured sky
Weather: FG  (fog)

METAR text: LKPR 220230Z 21003KT 4000 0700E R24/P2000N BR BCFG FEW004 07/07 Q1022 NOSIG
Conditions at: LKPR (PRAGUE/RUZYNE , CZ) observed 0230 UTC 22 October 2019
Temperature: 7.0°C (45°F)
Dewpoint: 7.0°C (45°F) [RH = 100%]
Pressure (altimeter): 30.18 inches Hg (1022.0 mb)
Winds: from the SSW (210 degrees) at 3 MPH (3 knots; 1.5 m/s)
Visibility: 2.49 miles (4.01 km)
Ceiling: at least 12,000 feet AGL
Clouds: few clouds at 400 feet AGL
Weather: BCFG BR  (patches of fog, mist)

Forecast for: AMD
Text: TAF AMD LKPR 220223Z 2202/2306 VRB02KT 3000 BR BCFG SCT004
Forecast period: 0200 to 0300 UTC 22 October 2019
Forecast type: FROM: standard forecast or significant change
Winds: variable direction winds at 2 MPH (2 knots; 1.0 m/s)
Visibility: 1.86 miles (2.99 km)
Ceiling: at least 12,000 feet AGL
Clouds: scattered clouds at 400 feet AGL
Weather: BR BCFG  (mist, patches of fog)
Text: BECMG 2203/2205 1200 BR BCFG BKN002
Forecast period: 0300 to 0900 UTC 22 October 2019
Forecast type: BECOMING: Conditions expected to become as follows by 0500 UTC 22 October 2019
Winds: variable direction winds at 2 MPH (2 knots; 1.0 m/s)
Visibility: 0.75 miles (1.21 km)
Ceiling: 200 feet AGL
Clouds: broken clouds at 200 feet AGL
Weather: BR BCFG  (mist, patches of fog)
Text: TEMPO 2205/2208 0700 FG BKN001
Forecast period: 0500 to 0800 UTC 22 October 2019
Forecast type: TEMPORARY: The following changes expected for less than half the time period
Visibility: 0.43 miles (0.69 km)
Ceiling: 100 feet AGL
Clouds: broken clouds at 100 feet AGL
Weather: FG  (fog)
Text: PROB30
Forecast period: 0500 to 0800 UTC 22 October 2019
Forecast type: TEMPORARY: The following changes expected for less than half the time period
Visibility: 0.25 miles (0.40 km)
Ceiling: 100 feet AGL
Clouds: overcast cloud deck at 100 feet AGL
Weather: FG  (fog)
Text: TEMPO 2205/2208 0400 FG OVC001
Forecast period: 0900 to 1800 UTC 22 October 2019
Forecast type: BECOMING: Conditions expected to become as follows by 1200 UTC 22 October 2019
Winds: variable direction winds at 2 MPH (2 knots; 1.0 m/s)
Visibility: 1.55 miles (2.49 km)
Ceiling: 400 feet AGL
Clouds: broken clouds at 400 feet AGL
Weather: BR  (mist)
Text: BECMG 2209/2212 2500 BR BKN004
Forecast period: 1200 to 1600 UTC 22 October 2019
Forecast type: TEMPORARY: The following changes expected for less than half the time period
Winds: from the N (350 degrees) at 6 MPH (5 knots; 2.6 m/s)
Visibility: 4 miles (7 km)
Ceiling: at least 12,000 feet AGL
Clouds: scattered clouds at 1000 feet AGL
Weather: no significant weather forecast for this period
Text: TEMPO 2212/2216 35005KT 7000 SCT010
Forecast period: 1800 UTC 22 October 2019 to 0600 UTC 23 October 2019
Forecast type: BECOMING: Conditions expected to become as follows by 2100 UTC 22 October 2019
Winds: variable direction winds at 2 MPH (2 knots; 1.0 m/s)
Visibility: 0.31 miles (0.50 km)
Ceiling: 200 feet AGL
Clouds: broken clouds at 200 feet AGL
Weather: FG  (fog)
Text: BECMG 2218/2221 0500 FG BKN002
Forecast period: 2100 UTC 22 October 2019 to 0600 UTC 23 October 2019
Forecast type: TEMPORARY: The following changes expected for less than half the time period
Visibility: 0.19 miles (0.31 km)
Ceiling: 100 feet AGL
Clouds: overcast cloud deck at 100 feet AGL
Weather: FG  (fog)